Time;durP1;ratioP1;P1;durP2;ratioP2;P2;SDS_P1;SDS_P2;PMS_P1;PMS_P2;Temp;Humidity;BMP_temperature;BMP_pressure;BME280_temperature;BME280_humidity;BME280_pressure;Samples;Min_cycle;Max_cycle;Signal;HPM_P1;HPM_P2
2021/08/16 00:01:13;;;;;;;7.17;4.67;;;21.00;99.90;;;;;;5075645;28;20438;-46
2021/08/16 00:03:40;;;;;;;6.13;4.60;;;21.00;99.90;;;;;;5075737;28;20503;-50
2021/08/16 00:06:06;;;;;;;7.43;5.17;;;21.00;99.90;;;;;;5075202;28;20438;-44
2021/08/16 00:08:33;;;;;;;6.50;5.77;;;20.90;99.90;;;;;;5075629;28;20476;-45
2021/08/16 00:11:03;;;;;;;6.23;3.77;;;20.90;99.90;;;;;;5075103;28;20504;-49
2021/08/16 00:13:30;;;;;;;6.10;4.23;;;20.90;99.90;;;;;;5075249;28;20443;-47
2021/08/16 00:15:57;;;;;;;7.80;5.50;;;20.90;99.90;;;;;;5075136;28;20485;-52
2021/08/16 00:18:24;;;;;;;5.37;4.17;;;20.90;99.90;;;;;;5075461;28;20454;-46
2021/08/16 00:20:51;;;;;;;7.20;5.17;;;20.80;99.90;;;;;;5075084;28;20485;-50
2021/08/16 00:23:17;;;;;;;5.73;4.40;;;20.80;99.90;;;;;;5074814;28;20542;-50
2021/08/16 00:25:44;;;;;;;6.37;4.27;;;20.80;99.90;;;;;;5074661;28;20466;-49
2021/08/16 00:28:12;;;;;;;10.53;4.20;;;20.80;99.90;;;;;;5075302;28;20442;-52
2021/08/16 00:30:39;;;;;;;10.10;4.67;;;20.80;99.90;;;;;;5074913;28;20438;-43
2021/08/16 00:33:06;;;;;;;10.30;4.63;;;20.80;99.90;;;;;;5075024;28;20450;-43
2021/08/16 00:35:32;;;;;;;6.43;5.00;;;20.90;99.90;;;;;;5074552;28;20450;-46
2021/08/16 00:37:59;;;;;;;7.07;4.10;;;20.90;99.90;;;;;;5074656;28;20434;-48
2021/08/16 00:40:26;;;;;;;6.40;5.03;;;20.90;99.90;;;;;;5074950;28;20442;-46
2021/08/16 00:42:52;;;;;;;6.53;4.77;;;20.80;99.90;;;;;;5074944;28;20486;-49
2021/08/16 00:45:29;;;;;;;6.40;4.47;;;20.80;99.90;;;;;;5074762;28;20814;-44
2021/08/16 00:47:56;;;;;;;13.73;4.83;;;20.80;99.90;;;;;;5074700;28;20449;-53
2021/08/16 00:50:25;;;;;;;6.10;4.60;;;20.80;99.90;;;;;;5074690;28;20458;-50
2021/08/16 00:52:54;;;;;;;6.43;3.87;;;20.70;99.90;;;;;;5075231;28;20442;-48
2021/08/16 00:55:21;;;;;;;10.40;4.47;;;20.70;99.90;;;;;;5075246;28;20810;-47
2021/08/16 00:57:54;;;;;;;4.90;4.03;;;20.70;99.90;;;;;;5075252;28;20443;-52
2021/08/16 01:00:22;;;;;;;7.60;4.83;;;20.70;99.90;;;;;;5074613;28;20462;-43
2021/08/16 01:02:48;;;;;;;4.60;3.63;;;20.70;99.90;;;;;;5074405;28;20481;-46
2021/08/16 01:05:16;;;;;;;4.70;3.83;;;20.70;99.90;;;;;;5074442;28;20476;-51
2021/08/16 01:07:44;;;;;;;6.03;4.17;;;20.70;99.90;;;;;;5074626;28;20508;-49
2021/08/16 01:10:12;;;;;;;5.67;4.57;;;20.70;99.90;;;;;;5074491;28;20485;-44
2021/08/16 01:12:40;;;;;;;8.13;4.03;;;20.60;99.90;;;;;;5074199;28;20508;-49
2021/08/16 01:15:09;;;;;;;5.63;4.90;;;20.60;99.90;;;;;;5074611;28;20442;-50
2021/08/16 01:17:38;;;;;;;12.83;4.67;;;20.50;99.90;;;;;;5074587;28;20516;-48
2021/08/16 01:20:06;;;;;;;7.63;4.83;;;20.50;99.90;;;;;;5073987;28;20490;-51
2021/08/16 01:22:34;;;;;;;7.47;5.50;;;20.50;99.90;;;;;;5074198;28;20532;-51
2021/08/16 01:25:01;;;;;;;6.63;4.23;;;20.40;99.90;;;;;;5074423;28;20899;-50
2021/08/16 01:27:29;;;;;;;6.30;4.10;;;20.40;99.90;;;;;;5074524;28;20446;-49
2021/08/16 01:29:56;;;;;;;7.13;4.07;;;20.40;99.90;;;;;;5078030;28;20508;-52
2021/08/16 01:32:23;;;;;;;7.63;4.77;;;20.40;99.90;;;;;;5078608;28;20462;-51
2021/08/16 01:34:49;;;;;;;7.00;3.93;;;20.40;99.90;;;;;;5078687;28;20462;-51
2021/08/16 01:37:16;;;;;;;6.40;4.70;;;20.40;99.90;;;;;;5078736;28;20453;-49
2021/08/16 01:39:43;;;;;;;5.33;3.37;;;20.40;99.90;;;;;;5078701;28;20587;-46
2021/08/16 01:42:10;;;;;;;8.90;5.17;;;20.40;99.90;;;;;;5078321;28;20482;-44
2021/08/16 01:44:38;;;;;;;6.07;4.83;;;20.40;99.90;;;;;;5077966;28;20911;-49
2021/08/16 01:47:05;;;;;;;6.73;4.37;;;20.30;99.90;;;;;;5077960;28;20993;-51
2021/08/16 01:49:32;;;;;;;8.27;4.80;;;20.30;99.90;;;;;;5078396;28;20524;-47
2021/08/16 01:51:58;;;;;;;6.40;5.17;;;20.30;99.90;;;;;;5078154;28;20467;-45
2021/08/16 01:54:25;;;;;;;7.37;4.43;;;20.30;99.90;;;;;;5078085;28;20449;-48
2021/08/16 01:56:52;;;;;;;5.70;4.10;;;20.30;99.90;;;;;;5082113;28;20520;-52
2021/08/16 01:59:18;;;;;;;5.10;4.17;;;20.30;99.90;;;;;;5093614;28;20491;-48
2021/08/16 02:01:46;;;;;;;6.73;4.43;;;20.30;99.90;;;;;;5098063;28;20456;-50
2021/08/16 02:04:13;;;;;;;7.80;4.23;;;20.30;99.90;;;;;;5098340;28;20469;-49
2021/08/16 02:06:40;;;;;;;9.93;4.57;;;20.30;99.90;;;;;;5098258;28;20449;-50
2021/08/16 02:09:07;;;;;;;9.03;4.30;;;20.30;99.90;;;;;;5098321;28;20459;-50
2021/08/16 02:11:33;;;;;;;5.30;4.00;;;20.30;99.90;;;;;;5098024;28;20918;-51
2021/08/16 02:14:00;;;;;;;5.97;4.20;;;20.30;99.90;;;;;;5098011;28;20441;-50
2021/08/16 02:16:27;;;;;;;6.83;3.60;;;20.30;99.90;;;;;;5097458;28;20449;-49
2021/08/16 02:18:55;;;;;;;8.70;5.07;;;20.30;99.90;;;;;;5097522;28;20937;-49
2021/08/16 02:21:21;;;;;;;6.10;3.80;;;20.20;99.90;;;;;;5097863;28;20425;-47
2021/08/16 02:23:48;;;;;;;6.10;4.23;;;20.20;99.90;;;;;;5097429;28;20481;-52
2021/08/16 02:26:15;;;;;;;10.93;4.80;;;20.10;99.90;;;;;;5097428;28;20461;-47
2021/08/16 02:28:41;;;;;;;9.33;4.43;;;20.10;99.90;;;;;;5098128;28;20507;-53
2021/08/16 02:31:08;;;;;;;11.10;5.17;;;20.10;99.90;;;;;;5098327;28;20503;-43
2021/08/16 02:33:35;;;;;;;8.00;4.80;;;20.10;99.90;;;;;;5097432;28;20522;-45
2021/08/16 02:36:03;;;;;;;7.83;4.57;;;20.00;99.90;;;;;;5097498;28;20445;-44
2021/08/16 02:38:30;;;;;;;7.83;4.60;;;20.00;99.90;;;;;;5098320;28;20441;-52
2021/08/16 02:40:56;;;;;;;5.90;3.90;;;20.10;99.90;;;;;;5097765;28;20905;-48
2021/08/16 02:43:27;;;;;;;6.93;4.37;;;20.10;99.90;;;;;;5097895;28;20858;-49
2021/08/16 02:45:53;;;;;;;6.23;4.40;;;20.10;99.90;;;;;;5097919;28;20484;-46
2021/08/16 02:48:20;;;;;;;6.07;4.50;;;20.10;99.90;;;;;;5096841;28;20449;-44
2021/08/16 02:50:47;;;;;;;7.77;4.23;;;20.10;99.90;;;;;;5094113;28;20445;-45
2021/08/16 02:53:15;;;;;;;7.27;3.60;;;20.10;99.90;;;;;;5096569;28;20507;-46
2021/08/16 04:14:44;;;;;;;7.43;4.20;;;20.00;99.90;;;;;;5910585;23;20481;-51
2021/08/16 04:17:11;;;;;;;4.77;3.37;;;20.00;99.90;;;;;;5015027;28;20441;-43
2021/08/16 04:19:39;;;;;;;7.33;5.17;;;20.10;99.90;;;;;;5014921;28;20449;-47
2021/08/16 04:22:06;;;;;;;7.27;3.43;;;20.10;99.90;;;;;;5015009;28;20559;-48
2021/08/16 04:24:33;;;;;;;11.13;4.70;;;20.20;99.90;;;;;;5014606;28;20481;-49
2021/08/16 04:26:59;;;;;;;5.97;4.40;;;20.20;99.90;;;;;;5014612;28;20477;-50
2021/08/16 04:29:26;;;;;;;7.60;4.63;;;20.30;99.90;;;;;;5014524;28;20519;-46
2021/08/16 04:31:56;;;;;;;5.13;3.83;;;20.30;99.90;;;;;;5014710;28;20449;-46
2021/08/16 04:34:23;;;;;;;10.57;4.00;;;20.20;99.90;;;;;;5014785;28;20544;-48
2021/08/16 04:36:49;;;;;;;6.90;4.50;;;20.20;99.90;;;;;;5014398;28;20465;-50
2021/08/16 04:39:16;;;;;;;4.50;3.73;;;20.20;99.90;;;;;;5014746;28;20449;-47
2021/08/16 04:41:43;;;;;;;4.93;3.83;;;20.20;99.90;;;;;;5014493;28;20444;-52
2021/08/16 04:44:09;;;;;;;5.20;4.13;;;20.20;99.90;;;;;;5014487;28;20489;-47
2021/08/16 04:46:36;;;;;;;8.07;4.50;;;20.20;99.90;;;;;;5014427;28;20441;-46
2021/08/16 04:49:04;;;;;;;7.67;5.43;;;20.20;99.90;;;;;;5014323;28;20445;-48
2021/08/16 04:51:31;;;;;;;6.77;4.27;;;20.20;99.90;;;;;;5014469;28;20507;-50
2021/08/16 04:53:58;;;;;;;5.47;3.73;;;20.20;99.90;;;;;;5014129;28;20857;-50
2021/08/16 04:56:24;;;;;;;7.17;5.53;;;20.20;99.90;;;;;;5014317;28;20949;-50
2021/08/16 04:58:51;;;;;;;9.87;5.67;;;20.10;99.90;;;;;;5014064;28;20511;-47
2021/08/16 05:01:18;;;;;;;5.93;4.37;;;20.00;99.90;;;;;;5014003;28;20988;-47
2021/08/16 05:03:45;;;;;;;8.10;4.10;;;20.00;99.90;;;;;;5013255;28;20481;-43
2021/08/16 05:06:13;;;;;;;9.27;4.10;;;20.00;99.90;;;;;;5014081;28;20441;-50
2021/08/16 05:08:39;;;;;;;6.30;4.17;;;20.00;99.90;;;;;;5014628;28;20495;-45
2021/08/16 05:11:07;;;;;;;8.07;4.07;;;20.00;99.90;;;;;;5019654;28;20988;-49
2021/08/16 05:13:34;;;;;;;6.83;3.90;;;19.90;99.90;;;;;;5016649;28;20449;-49
2021/08/16 05:16:01;;;;;;;8.60;5.40;;;19.80;99.90;;;;;;5016850;28;20485;-49
2021/08/16 05:18:28;;;;;;;5.70;3.43;;;19.90;99.90;;;;;;5020959;28;20481;-47
2021/08/16 05:20:56;;;;;;;6.83;4.33;;;19.90;99.90;;;;;;5023345;28;20938;-49
2021/08/16 05:23:24;;;;;;;7.87;4.30;;;20.00;99.90;;;;;;5018836;28;20499;-54
2021/08/16 05:25:51;;;;;;;6.17;4.03;;;20.00;99.90;;;;;;5016406;28;20511;-49
2021/08/16 05:28:18;;;;;;;6.80;3.90;;;20.10;99.90;;;;;;5018041;28;20449;-46
2021/08/16 05:30:45;;;;;;;6.40;4.10;;;20.20;99.90;;;;;;5015525;28;20448;-53
2021/08/16 05:33:12;;;;;;;9.30;3.50;;;20.40;99.90;;;;;;5016134;28;20449;-49
2021/08/16 05:35:41;;;;;;;10.37;4.13;;;20.40;99.90;;;;;;5015672;28;21016;-53
2021/08/16 05:38:08;;;;;;;8.57;4.00;;;20.30;99.90;;;;;;5015790;28;20445;-47
2021/08/16 05:40:36;;;;;;;9.67;4.20;;;20.40;99.90;;;;;;5015610;28;20471;-49
2021/08/16 05:43:03;;;;;;;8.07;4.23;;;20.50;99.90;;;;;;5015761;28;20571;-45
2021/08/16 05:45:30;;;;;;;7.00;3.77;;;20.60;99.90;;;;;;4998745;28;20492;-49
2021/08/16 05:47:57;;;;;;;12.27;4.80;;;20.70;99.90;;;;;;5015131;28;20439;-51
2021/08/16 05:50:25;;;;;;;16.43;4.40;;;20.70;99.90;;;;;;5007186;28;20741;-47
2021/08/16 05:52:52;;;;;;;6.80;3.80;;;20.80;99.90;;;;;;5001163;28;20461;-48
2021/08/16 05:55:20;;;;;;;6.43;3.77;;;21.00;99.90;;;;;;5005193;28;20491;-48
2021/08/16 05:57:48;;;;;;;5.83;3.90;;;21.10;99.90;;;;;;5015423;28;20889;-49
2021/08/16 06:00:18;;;;;;;4.93;4.43;;;21.20;99.90;;;;;;5015869;28;20456;-54
2021/08/16 06:02:45;;;;;;;9.40;3.30;;;21.30;99.90;;;;;;5017299;28;20460;-53
2021/08/16 06:05:12;;;;;;;6.40;4.50;;;21.40;99.90;;;;;;4997550;28;20446;-49
2021/08/16 06:07:38;;;;;;;5.67;3.97;;;21.40;99.90;;;;;;4997230;28;20453;-43
2021/08/16 06:10:06;;;;;;;7.47;3.80;;;21.50;99.90;;;;;;5002375;28;20460;-49
2021/08/16 06:12:33;;;;;;;6.90;4.47;;;21.60;99.90;;;;;;5014807;28;20442;-47
2021/08/16 06:15:03;;;;;;;5.17;3.73;;;21.70;99.90;;;;;;5017610;28;20499;-48
2021/08/16 06:17:30;;;;;;;10.43;4.20;;;21.70;99.90;;;;;;5022148;28;20457;-52
2021/08/16 06:19:56;;;;;;;5.07;3.40;;;21.70;99.90;;;;;;5018548;28;20510;-50
2021/08/16 06:22:23;;;;;;;4.60;3.53;;;21.80;99.90;;;;;;5001081;28;20438;-44
2021/08/16 06:24:49;;;;;;;4.73;3.50;;;21.80;99.90;;;;;;4999987;28;20539;-51
2021/08/16 06:27:16;;;;;;;5.57;4.63;;;21.80;99.90;;;;;;4998774;28;20446;-45
2021/08/16 06:29:44;;;;;;;4.70;3.40;;;21.90;99.90;;;;;;5000737;28;20496;-46
2021/08/16 06:32:12;;;;;;;5.17;3.30;;;21.80;99.90;;;;;;5018085;28;20938;-45
2021/08/16 06:34:41;;;;;;;5.00;3.40;;;21.70;99.90;;;;;;5017629;28;20840;-48
2021/08/16 06:37:08;;;;;;;6.40;3.40;;;21.70;99.90;;;;;;5017837;28;20531;-45
2021/08/16 06:39:35;;;;;;;4.67;3.67;;;21.60;99.90;;;;;;5005467;28;20554;-47
2021/08/16 06:42:02;;;;;;;5.93;3.60;;;21.60;99.90;;;;;;4998325;28;20457;-47
2021/08/16 06:44:28;;;;;;;6.80;3.50;;;21.50;99.90;;;;;;5000650;28;20534;-51
2021/08/16 06:46:55;;;;;;;8.30;3.50;;;21.50;99.90;;;;;;5017702;28;20461;-43
2021/08/16 08:02:07;;;;;;;8.03;4.33;;;23.20;99.90;;;;;;4978791;28;20508;-52
2021/08/16 08:04:34;;;;;;;7.37;4.23;;;24.10;99.90;;;;;;4979809;29;20474;-52
2021/08/16 08:07:02;;;;;;;5.80;4.30;;;24.60;99.90;;;;;;4980220;29;20452;-50
2021/08/16 08:09:32;;;;;;;7.53;4.60;;;24.70;99.90;;;;;;4979663;28;20438;-51
2021/08/16 08:11:59;;;;;;;6.07;3.90;;;25.00;99.90;;;;;;4981011;28;20428;-50
2021/08/16 08:14:26;;;;;;;7.23;4.43;;;25.40;99.90;;;;;;4980791;28;20464;-51
2021/08/16 08:16:52;;;;;;;8.90;5.43;;;26.00;99.90;;;;;;4980157;28;20444;-53
2021/08/16 08:19:20;;;;;;;6.13;5.10;;;26.10;99.90;;;;;;4979434;29;20502;-53
2021/08/16 08:21:47;;;;;;;6.23;4.87;;;27.10;99.90;;;;;;4979622;29;20443;-51
2021/08/16 08:24:14;;;;;;;6.00;4.47;;;28.10;99.70;;;;;;4980109;28;20484;-50
2021/08/16 08:26:40;;;;;;;5.57;4.80;;;28.50;96.50;;;;;;4980404;28;20447;-51
2021/08/16 08:29:07;;;;;;;8.23;4.67;;;29.10;94.00;;;;;;4979458;29;20458;-52
2021/08/16 08:31:36;;;;;;;8.70;4.97;;;29.90;90.40;;;;;;4978851;29;20444;-49
2021/08/16 08:34:03;;;;;;;6.27;5.30;;;30.50;83.00;;;;;;4979284;29;20468;-51
2021/08/16 08:36:31;;;;;;;6.67;5.00;;;30.90;75.10;;;;;;4979753;28;20436;-49
2021/08/16 13:44:15;;;;;;;7.27;3.73;;;25.30;68.50;;;;;;6090392;23;20539;31
2021/08/16 13:46:44;;;;;;;7.80;3.50;;;25.10;69.40;;;;;;4934802;29;20802;-48
2021/08/16 13:49:11;;;;;;;4.90;3.73;;;25.00;70.70;;;;;;4936097;29;20845;-51
2021/08/16 14:17:33;;;;;;;8.20;3.20;;;24.80;69.40;;;;;;5377882;23;20493;-45
2021/08/16 14:20:00;;;;;;;4.37;3.80;;;24.80;68.50;;;;;;4993932;28;20811;-45
2021/08/16 14:22:27;;;;;;;6.37;3.23;;;24.80;68.30;;;;;;4993969;28;20500;-47
2021/08/16 14:24:54;;;;;;;15.00;4.53;;;24.70;68.50;;;;;;4993714;28;20486;-45
2021/08/16 14:27:22;;;;;;;5.17;3.20;;;24.70;69.00;;;;;;4993804;28;20449;-41
2021/08/16 14:29:49;;;;;;;5.90;3.90;;;24.70;68.90;;;;;;4993993;28;20544;-45
2021/08/16 14:32:16;;;;;;;5.07;3.67;;;24.50;68.90;;;;;;4993763;28;20465;-46
2021/08/16 14:34:45;;;;;;;5.73;3.60;;;24.30;69.60;;;;;;4994268;28;20459;-44
2021/08/16 14:37:12;;;;;;;9.60;3.87;;;24.30;69.70;;;;;;4997302;28;20536;-48
2021/08/16 14:39:39;;;;;;;7.97;4.10;;;24.20;70.10;;;;;;4997331;28;20449;-47
2021/08/16 14:42:07;;;;;;;4.53;3.33;;;24.10;70.10;;;;;;4997084;28;20476;-45
2021/08/16 14:44:37;;;;;;;6.03;4.00;;;24.00;70.70;;;;;;4997349;28;20489;-49
2021/08/16 14:47:06;;;;;;;8.53;4.33;;;24.00;71.20;;;;;;4997246;28;20450;-49
2021/08/16 14:49:33;;;;;;;4.30;3.40;;;24.00;71.50;;;;;;4997338;28;20497;-44
2021/08/16 14:52:03;;;;;;;4.20;3.73;;;24.00;71.80;;;;;;4997224;28;20520;-47
2021/08/16 14:54:31;;;;;;;7.40;4.30;;;23.90;72.20;;;;;;4997053;28;20509;-47
2021/08/16 14:56:58;;;;;;;9.63;4.80;;;23.80;72.00;;;;;;4996846;28;20459;-50
2021/08/16 14:59:28;;;;;;;7.10;4.00;;;23.60;72.80;;;;;;4997192;28;20446;-52
2021/08/16 15:01:55;;;;;;;10.23;4.23;;;23.60;73.60;;;;;;4996799;28;20449;-51
2021/08/16 15:04:22;;;;;;;9.23;4.37;;;23.50;74.00;;;;;;4997103;28;20576;-52
2021/08/16 15:06:49;;;;;;;6.93;3.57;;;23.50;74.70;;;;;;4996700;28;20461;-46
2021/08/16 15:09:17;;;;;;;6.77;4.03;;;23.50;75.20;;;;;;4987247;28;20513;-48
2021/08/16 15:11:45;;;;;;;10.43;4.10;;;23.40;75.80;;;;;;4977446;28;20450;-47
2021/08/16 15:14:11;;;;;;;5.67;4.17;;;23.20;76.40;;;;;;4977071;28;20453;-44
2021/08/16 15:16:39;;;;;;;6.00;3.30;;;23.10;76.90;;;;;;4977056;28;20479;-48
2021/08/16 15:19:06;;;;;;;5.10;3.67;;;23.00;76.80;;;;;;4977161;28;20476;-50
2021/08/16 15:21:33;;;;;;;8.00;4.03;;;23.00;76.80;;;;;;4977381;28;20456;-54
2021/08/16 15:24:02;;;;;;;4.50;3.53;;;23.00;76.10;;;;;;4977189;28;20447;-45
2021/08/16 15:26:31;;;;;;;5.70;3.30;;;22.90;76.10;;;;;;4977102;28;20794;-47
2021/08/16 15:28:58;;;;;;;7.17;3.80;;;22.80;76.50;;;;;;4976803;28;20888;-47
2021/08/16 15:31:26;;;;;;;3.73;2.50;;;22.70;77.10;;;;;;4976695;28;20474;-52
2021/08/16 15:33:53;;;;;;;6.33;3.63;;;22.60;77.60;;;;;;4977027;28;20797;-44
2021/08/16 15:36:21;;;;;;;10.33;3.93;;;22.50;79.10;;;;;;4976867;28;20465;-46
2021/08/16 15:38:48;;;;;;;4.67;2.90;;;22.30;83.40;;;;;;4976650;28;20469;-44
2021/08/16 15:41:15;;;;;;;5.43;3.13;;;22.10;85.40;;;;;;4976874;28;20457;-49
2021/08/16 15:43:46;;;;;;;5.63;3.50;;;22.00;86.10;;;;;;4976889;28;20444;-46
2021/08/16 16:58:12;;;;;;;4.60;2.20;;;18.80;99.90;;;;;;5113906;22;20477;-43
2021/08/16 17:00:39;;;;;;;2.50;1.60;;;18.80;99.90;;;;;;4961813;28;20860;-48
2021/08/16 17:03:08;;;;;;;2.83;1.50;;;18.90;99.90;;;;;;4959182;29;20456;-43
2021/08/16 17:05:38;;;;;;;1.70;1.37;;;18.90;99.90;;;;;;4958734;29;20560;-45
2021/08/16 17:08:05;;;;;;;2.00;1.30;;;18.90;99.90;;;;;;4958600;29;20451;-46
2021/08/16 17:10:35;;;;;;;1.93;1.40;;;18.90;99.90;;;;;;4959342;29;20471;-48
2021/08/16 17:13:07;;;;;;;3.00;1.93;;;18.90;99.90;;;;;;4959214;29;20447;-46
2021/08/16 17:15:36;;;;;;;3.40;1.63;;;18.80;99.90;;;;;;4960090;29;20523;-48
2021/08/16 17:18:03;;;;;;;3.00;2.00;;;18.80;99.90;;;;;;4960578;29;20487;-49
2021/08/16 17:20:30;;;;;;;1.90;1.50;;;18.70;99.90;;;;;;4962474;29;20459;-47
2021/08/16 17:22:57;;;;;;;2.23;1.40;;;18.60;99.90;;;;;;4960214;29;20448;-47
2021/08/16 17:25:25;;;;;;;2.90;1.83;;;18.60;99.90;;;;;;4960887;29;20479;-50
2021/08/16 17:27:52;;;;;;;1.87;1.40;;;18.50;99.90;;;;;;4964857;29;20535;-45
2021/08/16 17:30:19;;;;;;;3.23;1.93;;;18.50;99.90;;;;;;4960467;29;20451;-49
2021/08/16 17:32:48;;;;;;;3.13;2.10;;;18.40;99.90;;;;;;4959053;29;20455;-41
2021/08/16 17:35:19;;;;;;;4.13;2.43;;;18.40;99.90;;;;;;4959453;29;20823;-43
2021/08/16 17:37:46;;;;;;;2.00;1.43;;;18.50;99.90;;;;;;4960152;29;20850;-46
2021/08/16 17:40:14;;;;;;;3.13;2.23;;;18.30;99.90;;;;;;4960289;29;20483;-46
2021/08/16 17:42:45;;;;;;;2.50;1.97;;;18.20;99.90;;;;;;4959948;29;20451;-43
2021/08/16 17:45:12;;;;;;;3.10;2.10;;;18.10;99.90;;;;;;4960485;29;20544;-47
2021/08/16 17:47:39;;;;;;;3.77;2.20;;;18.00;99.90;;;;;;4969495;28;20467;-43
2021/08/16 17:50:08;;;;;;;3.07;2.20;;;17.90;99.90;;;;;;4977312;28;20904;-42
2021/08/16 17:52:36;;;;;;;4.07;3.13;;;17.80;99.90;;;;;;4978775;28;20491;-44
2021/08/16 17:55:03;;;;;;;2.70;2.40;;;17.70;99.90;;;;;;4984438;28;20439;-41
2021/08/16 17:57:30;;;;;;;3.33;2.37;;;17.70;99.90;;;;;;4980904;28;20447;-42
2021/08/16 17:59:58;;;;;;;3.90;2.60;;;17.60;99.90;;;;;;4978906;28;20518;-46
2021/08/16 18:02:25;;;;;;;4.00;2.57;;;17.60;99.90;;;;;;4978771;28;20473;-42
2021/08/16 18:04:52;;;;;;;4.33;3.17;;;17.50;99.90;;;;;;4979444;28;20482;-43
2021/08/16 18:07:27;;;;;;;8.80;3.17;;;17.40;99.90;;;;;;4980905;28;20453;-42
2021/08/16 18:09:54;;;;;;;4.87;2.87;;;17.40;99.90;;;;;;4985948;28;20464;-44
2021/08/16 18:12:21;;;;;;;4.20;3.10;;;17.30;99.90;;;;;;4989033;28;20896;-44
2021/08/16 18:14:49;;;;;;;5.30;3.10;;;17.30;99.90;;;;;;4988934;28;20638;-49
2021/08/16 18:17:16;;;;;;;4.03;3.43;;;17.20;99.90;;;;;;4988549;28;20473;-45
2021/08/16 18:19:44;;;;;;;6.77;4.00;;;17.20;99.90;;;;;;4982757;28;20615;-43
2021/08/16 18:22:13;;;;;;;5.03;3.63;;;17.10;99.90;;;;;;4983147;28;20450;-45
2021/08/16 18:24:44;;;;;;;5.07;3.60;;;17.00;99.90;;;;;;4982566;28;20451;-42
2021/08/16 18:27:12;;;;;;;5.23;3.47;;;17.00;99.90;;;;;;4982850;28;20482;-44
2021/08/16 18:29:39;;;;;;;5.77;2.90;;;17.00;99.90;;;;;;4982531;28;20464;-40
2021/08/16 18:32:07;;;;;;;5.00;2.87;;;16.90;99.90;;;;;;4982413;28;20533;-46
2021/08/16 18:34:34;;;;;;;7.17;3.27;;;16.90;99.90;;;;;;4983318;28;20781;-42
2021/08/16 18:37:04;;;;;;;7.50;2.33;;;16.80;99.90;;;;;;4983448;28;20546;-44
2021/08/16 18:39:33;;;;;;;2.20;1.90;;;16.70;99.90;;;;;;4982176;28;20974;-42
2021/08/16 18:42:02;;;;;;;5.83;2.20;;;16.60;99.90;;;;;;4981109;28;20459;-43
2021/08/16 18:44:30;;;;;;;3.90;2.23;;;16.50;99.90;;;;;;4982259;28;20494;-43
2021/08/16 18:46:57;;;;;;;5.17;1.73;;;16.40;99.90;;;;;;4982051;28;20450;-45
2021/08/16 18:49:24;;;;;;;3.70;3.30;;;16.20;99.90;;;;;;4982094;28;20764;-45
2021/08/16 18:51:51;;;;;;;6.73;2.07;;;16.10;99.90;;;;;;4981632;28;20447;-45
2021/08/16 18:54:19;;;;;;;4.40;1.80;;;16.10;99.90;;;;;;4985053;28;20510;-44
2021/08/16 18:56:46;;;;;;;3.20;2.10;;;16.10;99.90;;;;;;4986642;28;20443;-47
2021/08/16 18:59:15;;;;;;;5.33;2.20;;;16.00;99.90;;;;;;4981625;28;20474;-45
2021/08/16 19:01:42;;;;;;;3.70;2.60;;;16.00;99.90;;;;;;4986389;28;20446;-46
2021/08/16 19:04:09;;;;;;;4.20;2.90;;;16.00;99.90;;;;;;4982968;28;20458;-47
2021/08/16 19:06:37;;;;;;;3.20;2.23;;;16.00;99.90;;;;;;4981268;28;20566;-44
2021/08/16 19:09:04;;;;;;;3.30;2.10;;;16.00;99.90;;;;;;4982405;28;20917;-48
2021/08/16 19:11:31;;;;;;;4.07;2.50;;;16.10;99.90;;;;;;4981597;28;20443;-43
2021/08/16 19:13:59;;;;;;;2.50;2.03;;;16.00;99.90;;;;;;4981173;28;20450;-41
2021/08/16 19:16:30;;;;;;;3.10;2.30;;;16.00;99.90;;;;;;4978552;28;20558;-44
2021/08/16 19:18:57;;;;;;;5.17;2.07;;;16.00;99.90;;;;;;4985720;28;20487;-46
2021/08/16 19:21:24;;;;;;;2.40;1.90;;;16.00;99.90;;;;;;4979769;28;20783;-43
2021/08/16 19:23:51;;;;;;;27.80;17.83;;;15.90;99.90;;;;;;4976571;28;20443;-42
2021/08/16 19:26:18;;;;;;;6.03;5.43;;;16.00;99.90;;;;;;4971379;28;20475;-43
2021/08/16 19:28:46;;;;;;;7.43;3.50;;;15.90;99.90;;;;;;4964301;28;20448;-45
2021/08/16 19:31:17;;;;;;;6.10;2.77;;;15.80;99.90;;;;;;4963091;28;20514;-42
2021/08/16 19:33:48;;;;;;;5.83;3.00;;;15.90;99.90;;;;;;4965444;29;20487;-42
2021/08/16 19:36:15;;;;;;;5.87;2.63;;;15.90;99.90;;;;;;4960470;28;20467;-45
2021/08/16 19:38:42;;;;;;;4.77;2.70;;;15.90;99.90;;;;;;4973924;28;20773;-44
2021/08/16 19:41:09;;;;;;;5.00;2.80;;;15.90;99.90;;;;;;4985028;28;20931;-45
2021/08/16 19:43:36;;;;;;;6.57;3.23;;;16.00;99.90;;;;;;4984981;28;20473;-43
2021/08/16 19:46:03;;;;;;;6.20;2.97;;;16.00;99.90;;;;;;4988278;28;20487;-43
2021/08/16 19:48:30;;;;;;;4.37;2.27;;;15.90;99.90;;;;;;4985847;28;20457;-42
2021/08/16 19:50:59;;;;;;;3.40;2.53;;;15.80;99.90;;;;;;4985819;28;20549;-42
2021/08/16 19:53:27;;;;;;;8.07;3.43;;;15.80;99.90;;;;;;4977235;28;20451;-47
2021/08/16 19:55:54;;;;;;;5.63;2.83;;;15.80;99.90;;;;;;4977739;28;20478;-43
2021/08/16 19:58:21;;;;;;;8.83;4.33;;;15.80;99.90;;;;;;4982402;28;20430;-43
2021/08/16 20:00:48;;;;;;;8.60;2.90;;;15.80;99.90;;;;;;4979693;28;20489;-45
2021/08/16 20:03:15;;;;;;;20.23;15.53;;;15.80;99.90;;;;;;4971455;28;20482;-46
2021/08/16 20:05:42;;;;;;;14.87;9.57;;;15.80;99.90;;;;;;4979747;28;20509;-44
2021/08/16 20:08:11;;;;;;;5.27;3.70;;;15.80;99.90;;;;;;4978608;28;20864;-44
2021/08/16 20:10:38;;;;;;;6.60;3.53;;;15.80;99.90;;;;;;4979368;28;20455;-44
2021/08/16 20:13:07;;;;;;;8.10;5.27;;;15.80;99.90;;;;;;4977801;28;20962;-44
2021/08/16 20:15:35;;;;;;;6.53;3.60;;;15.80;99.90;;;;;;4965678;28;20447;-46
2021/08/16 20:18:02;;;;;;;5.87;4.00;;;15.80;99.90;;;;;;4959107;28;20514;-46
2021/08/16 20:20:29;;;;;;;6.40;4.43;;;15.80;99.90;;;;;;4964270;28;20443;-44
2021/08/16 20:22:56;;;;;;;7.90;3.80;;;15.80;99.90;;;;;;4978284;28;20538;-43
2021/08/16 20:25:25;;;;;;;15.90;11.60;;;15.90;99.90;;;;;;4978888;28;20908;-48
2021/08/16 20:27:53;;;;;;;9.27;5.37;;;15.90;99.90;;;;;;4978762;28;20518;-46
2021/08/16 20:30:21;;;;;;;6.13;3.07;;;15.80;99.90;;;;;;4979721;28;20445;-44
2021/08/16 20:32:48;;;;;;;5.77;3.53;;;15.80;99.90;;;;;;4979593;28;20461;-45
2021/08/16 20:35:15;;;;;;;8.43;4.23;;;15.80;99.90;;;;;;4978792;28;20466;-51
2021/08/16 20:37:42;;;;;;;10.43;4.87;;;15.80;99.90;;;;;;4978587;28;20540;-46
2021/08/16 20:40:10;;;;;;;5.87;3.33;;;15.80;99.90;;;;;;4978667;28;20453;-52
2021/08/16 20:42:38;;;;;;;7.67;3.87;;;15.70;99.90;;;;;;4978350;28;20466;-43
2021/08/16 20:45:06;;;;;;;6.23;3.77;;;15.70;99.90;;;;;;4977881;28;20451;-47
2021/08/16 20:47:34;;;;;;;5.70;3.03;;;15.70;99.90;;;;;;4977211;28;20517;-43
2021/08/16 20:50:01;;;;;;;4.10;2.50;;;15.60;99.90;;;;;;4977302;28;20931;-46
2021/08/16 20:52:28;;;;;;;5.40;3.20;;;15.60;99.90;;;;;;4977006;28;20523;-48
2021/08/16 20:54:55;;;;;;;5.50;3.30;;;15.60;99.90;;;;;;4976444;28;20898;-45
2021/08/16 20:57:22;;;;;;;8.37;3.70;;;15.50;99.90;;;;;;4977355;28;20483;-45
2021/08/16 20:59:50;;;;;;;6.57;3.97;;;15.40;99.90;;;;;;4978343;28;20967;-44
2021/08/16 21:02:17;;;;;;;7.90;4.77;;;15.40;99.90;;;;;;4978928;28;20455;-43
2021/08/16 21:04:44;;;;;;;6.10;4.40;;;15.40;99.90;;;;;;4979200;28;20483;-43
2021/08/16 21:07:11;;;;;;;12.00;6.60;;;15.40;99.90;;;;;;4978645;28;20581;-53
2021/08/16 21:09:38;;;;;;;10.03;5.50;;;15.40;99.90;;;;;;4978576;28;20487;-46
2021/08/16 21:12:07;;;;;;;12.03;3.90;;;15.40;99.90;;;;;;4978824;28;20497;-48
2021/08/16 21:14:34;;;;;;;7.47;4.20;;;15.40;99.90;;;;;;4978919;28;20446;-44
2021/08/16 21:17:03;;;;;;;5.50;4.00;;;15.30;99.90;;;;;;4978247;28;20808;-45
2021/08/16 21:19:34;;;;;;;9.33;4.73;;;15.30;99.90;;;;;;4978570;28;20461;-45
2021/08/16 21:22:01;;;;;;;8.03;3.80;;;15.40;99.90;;;;;;4977819;28;20469;-48
2021/08/16 21:24:29;;;;;;;6.97;3.60;;;15.30;99.90;;;;;;4978613;28;20808;-46
2021/08/16 21:26:56;;;;;;;4.33;3.43;;;15.30;99.90;;;;;;4978654;28;20569;-45
2021/08/16 21:29:23;;;;;;;8.40;3.17;;;15.30;99.90;;;;;;4978545;28;20509;-48
2021/08/16 21:31:50;;;;;;;7.30;3.97;;;15.30;99.90;;;;;;4978443;28;20471;-44
2021/08/16 21:34:19;;;;;;;5.33;3.00;;;15.20;99.90;;;;;;4978427;28;20542;-52
2021/08/16 21:36:47;;;;;;;5.87;3.17;;;15.20;99.90;;;;;;4978944;28;20537;-50
2021/08/16 21:39:14;;;;;;;7.50;4.17;;;15.20;99.90;;;;;;4979107;28;20490;-46
2021/08/16 21:41:40;;;;;;;9.23;3.83;;;15.30;99.90;;;;;;4978040;28;20920;-49
2021/08/16 21:44:08;;;;;;;7.90;4.63;;;15.20;99.90;;;;;;4978420;28;20454;-44
2021/08/16 21:46:34;;;;;;;7.97;4.80;;;15.20;99.90;;;;;;4981459;28;20486;-46
2021/08/16 21:49:01;;;;;;;12.40;7.70;;;15.10;99.90;;;;;;4982236;28;20461;-46
2021/08/16 21:51:30;;;;;;;8.50;3.97;;;15.10;99.90;;;;;;4981811;28;20455;-44
2021/08/16 21:53:59;;;;;;;7.00;3.70;;;15.10;99.90;;;;;;4982311;28;20451;-47
2021/08/16 21:56:25;;;;;;;8.80;4.00;;;15.20;99.90;;;;;;4982178;28;20458;-44
2021/08/16 21:58:52;;;;;;;9.20;5.77;;;15.10;99.90;;;;;;4981796;28;20541;-45
2021/08/16 22:01:19;;;;;;;15.30;4.37;;;15.10;99.90;;;;;;4982534;28;20451;-42